createdAt,value
2022-12-19T00:00:15.614Z,0.00
2022-12-19T00:01:15.622Z,0.00
2022-12-19T00:03:54.608Z,0.00
2022-12-19T00:04:55.435Z,0.00
2022-12-19T00:05:55.372Z,0.00
2022-12-19T00:06:55.277Z,0.00
2022-12-19T00:07:55.272Z,0.00
2022-12-19T00:08:55.150Z,0.00
2022-12-19T00:09:55.139Z,0.00
2022-12-19T00:10:55.030Z,0.00
2022-12-19T00:11:54.980Z,0.00
2022-12-19T00:12:54.916Z,0.00
2022-12-19T00:13:54.888Z,0.00
2022-12-19T00:14:54.817Z,0.00
2022-12-19T00:15:54.856Z,0.00
2022-12-19T00:16:54.687Z,0.00
2022-12-19T00:17:54.596Z,0.00
2022-12-19T00:18:55.209Z,0.00
2022-12-19T00:21:34.853Z,0.00
2022-12-19T00:22:34.354Z,0.00
2022-12-19T00:23:34.314Z,0.00
2022-12-19T00:24:34.251Z,0.00
2022-12-19T00:25:34.247Z,0.00
2022-12-19T00:26:34.109Z,0.00
2022-12-19T00:27:34.081Z,0.00
2022-12-19T00:28:33.993Z,0.00
2022-12-19T00:29:33.939Z,0.00
2022-12-19T00:30:33.842Z,0.00
2022-12-19T00:31:33.821Z,0.00
2022-12-19T00:32:33.786Z,0.00
2022-12-19T00:33:33.700Z,0.00
2022-12-19T00:34:33.614Z,0.00
2022-12-19T00:35:33.551Z,0.00
2022-12-19T00:36:33.458Z,0.00
2022-12-19T00:37:33.436Z,0.00
2022-12-19T00:38:33.385Z,0.00
2022-12-19T00:39:33.261Z,0.00
2022-12-19T00:40:33.222Z,0.00
2022-12-19T00:41:33.146Z,0.00
2022-12-19T00:42:33.100Z,0.00
2022-12-19T00:43:33.050Z,0.00
2022-12-19T00:44:32.948Z,0.00
2022-12-19T00:45:32.960Z,0.00
2022-12-19T00:46:32.890Z,0.00
2022-12-19T00:47:32.919Z,0.00
2022-12-19T00:48:32.709Z,0.00
2022-12-19T00:49:32.643Z,0.00
2022-12-19T00:50:32.620Z,0.00
2022-12-19T00:51:32.490Z,0.00
2022-12-19T00:52:32.448Z,0.00
2022-12-19T00:53:32.398Z,0.00
2022-12-19T00:54:32.442Z,0.00
2022-12-19T00:55:32.267Z,0.00
2022-12-19T00:57:41.404Z,0.00
2022-12-19T00:58:46.791Z,0.00
2022-12-19T00:59:42.289Z,0.00
2022-12-19T01:00:43.302Z,0.00
2022-12-19T01:01:42.324Z,0.00
2022-12-19T01:02:42.238Z,0.00
2022-12-19T01:03:58.016Z,0.00
2022-12-19T01:04:42.201Z,0.00
2022-12-19T01:05:42.107Z,0.00
2022-12-19T01:06:41.830Z,0.00
2022-12-19T01:07:41.790Z,0.00
2022-12-19T01:08:41.716Z,0.00
2022-12-19T01:09:41.696Z,0.00
2022-12-19T01:10:41.546Z,0.00
2022-12-19T01:11:41.515Z,0.00
2022-12-19T01:12:41.466Z,0.00
2022-12-19T01:13:41.376Z,0.00
2022-12-19T01:15:04.688Z,0.00
2022-12-19T01:15:41.281Z,0.00
2022-12-19T01:16:41.251Z,0.00
2022-12-19T01:17:43.980Z,0.00
2022-12-19T01:18:41.031Z,0.00
2022-12-19T01:19:44.308Z,0.00
2022-12-19T01:20:40.937Z,0.00
2022-12-19T01:21:40.889Z,0.00
2022-12-19T01:22:40.831Z,0.00
2022-12-19T01:23:40.722Z,0.00
2022-12-19T01:24:40.698Z,0.00
2022-12-19T01:25:41.592Z,0.00
2022-12-19T01:26:40.580Z,0.00
2022-12-19T01:27:40.492Z,0.00
2022-12-19T01:28:40.387Z,0.00
2022-12-19T01:29:52.107Z,0.00
2022-12-19T01:30:40.307Z,0.00
2022-12-19T01:31:40.289Z,0.00
2022-12-19T01:32:40.177Z,0.00
2022-12-19T01:33:40.058Z,0.00
2022-12-19T01:34:40.060Z,0.00
2022-12-19T01:35:39.940Z,0.00
2022-12-19T01:36:40.422Z,0.00
2022-12-19T01:37:39.858Z,0.00
2022-12-19T01:38:39.775Z,0.00
2022-12-19T01:39:39.707Z,0.00
2022-12-19T01:40:39.609Z,0.00
2022-12-19T01:41:39.584Z,0.00
2022-12-19T01:42:39.544Z,0.00
2022-12-19T01:43:39.449Z,0.00
2022-12-19T01:44:39.420Z,0.00
2022-12-19T01:45:45.419Z,0.00
2022-12-19T01:46:39.284Z,0.00
2022-12-19T01:47:39.216Z,0.00
2022-12-19T01:48:39.123Z,0.00
2022-12-19T01:49:39.055Z,0.00
2022-12-19T01:51:01.605Z,0.00
2022-12-19T01:51:38.934Z,0.00
2022-12-19T01:52:38.871Z,0.00
2022-12-19T01:53:48.756Z,0.00
2022-12-19T01:54:38.739Z,0.00
2022-12-19T01:55:38.649Z,0.00
2022-12-19T01:56:38.598Z,0.00
2022-12-19T01:57:38.507Z,0.00
2022-12-19T01:58:38.444Z,0.00
2022-12-19T01:59:38.383Z,0.00
2022-12-19T02:00:38.356Z,0.00
2022-12-19T02:01:47.677Z,0.00
2022-12-19T02:02:40.348Z,0.00
2022-12-19T02:03:38.159Z,0.00
2022-12-19T02:04:38.088Z,0.00
2022-12-19T02:05:38.000Z,0.00
2022-12-19T02:06:37.942Z,0.00
2022-12-19T02:07:37.837Z,0.00
2022-12-19T02:08:58.757Z,0.00
2022-12-19T02:09:37.749Z,0.00
2022-12-19T02:10:37.673Z,0.00
2022-12-19T02:11:37.624Z,0.00
2022-12-19T02:12:37.521Z,0.00
2022-12-19T02:13:37.519Z,0.00
2022-12-19T02:14:37.443Z,0.00
2022-12-19T02:15:37.332Z,0.00
2022-12-19T02:16:37.366Z,0.00
2022-12-19T02:17:37.225Z,0.00
2022-12-19T02:18:37.130Z,0.00
2022-12-19T02:19:37.072Z,0.00
2022-12-19T02:20:37.054Z,0.00
2022-12-19T02:21:36.971Z,0.00
2022-12-19T02:22:36.944Z,0.00
2022-12-19T02:23:36.850Z,0.00
2022-12-19T02:24:36.789Z,0.00
2022-12-19T02:25:36.715Z,0.00
2022-12-19T02:26:36.689Z,0.00
2022-12-19T02:27:40.098Z,0.00
2022-12-19T02:28:36.504Z,0.00
2022-12-19T02:29:36.463Z,0.00
2022-12-19T02:30:36.370Z,0.00
2022-12-19T02:31:36.353Z,0.00
2022-12-19T02:32:36.439Z,0.00
2022-12-19T02:33:36.174Z,0.00
2022-12-19T02:34:38.844Z,0.00
2022-12-19T02:35:36.078Z,0.00
2022-12-19T02:36:38.951Z,0.00
2022-12-19T02:37:35.956Z,0.00
2022-12-19T02:38:35.880Z,0.00
2022-12-19T02:39:35.860Z,0.00
2022-12-19T02:40:35.786Z,0.00
2022-12-19T02:41:35.690Z,0.00
2022-12-19T02:42:35.657Z,0.00
2022-12-19T02:43:35.538Z,0.00
2022-12-19T02:44:35.535Z,0.00
2022-12-19T02:45:35.458Z,0.00
2022-12-19T02:46:35.365Z,0.00
2022-12-19T02:47:35.308Z,0.00
2022-12-19T02:48:35.287Z,0.00
2022-12-19T02:49:35.182Z,0.00
2022-12-19T02:50:35.124Z,0.00
2022-12-19T02:51:35.059Z,0.00
2022-12-19T02:52:34.991Z,0.00
2022-12-19T02:53:34.897Z,0.00
2022-12-19T02:54:34.831Z,0.00
2022-12-19T02:55:34.771Z,0.00
2022-12-19T02:56:34.738Z,0.00
2022-12-19T02:57:34.666Z,0.00
2022-12-19T02:58:34.631Z,0.00
2022-12-19T02:59:34.550Z,0.00
2022-12-19T03:00:34.531Z,0.00
2022-12-19T03:01:34.494Z,0.00
2022-12-19T03:02:34.529Z,0.00
2022-12-19T03:03:34.355Z,0.00
2022-12-19T03:04:34.243Z,0.00
2022-12-19T03:05:34.185Z,0.00
2022-12-19T03:06:34.125Z,0.00
2022-12-19T03:07:34.049Z,0.00
2022-12-19T03:08:34.267Z,0.00
2022-12-19T03:09:33.899Z,0.00
2022-12-19T03:10:33.815Z,0.00
2022-12-19T03:11:33.805Z,0.00
2022-12-19T03:12:33.700Z,0.00
2022-12-19T03:13:33.677Z,0.00
2022-12-19T03:14:33.582Z,0.00
2022-12-19T03:15:33.537Z,0.00
2022-12-19T03:16:33.460Z,0.00
2022-12-19T03:17:33.412Z,0.00
2022-12-19T03:18:33.339Z,0.00
2022-12-19T03:19:33.262Z,0.00
2022-12-19T03:20:54.175Z,0.00
2022-12-19T03:21:33.158Z,0.00
2022-12-19T03:22:33.093Z,0.00
2022-12-19T03:23:33.004Z,0.00
2022-12-19T03:24:33.013Z,0.00
2022-12-19T03:25:32.876Z,0.00
2022-12-19T03:26:32.860Z,0.00
2022-12-19T03:27:32.761Z,0.00
2022-12-19T03:28:32.676Z,0.00
2022-12-19T03:29:32.679Z,0.00
2022-12-19T03:30:53.581Z,0.00
2022-12-19T03:31:32.520Z,0.00
2022-12-19T03:32:32.433Z,0.00
2022-12-19T03:33:32.399Z,0.00
2022-12-19T03:34:32.343Z,0.00
2022-12-19T03:35:32.228Z,0.00
2022-12-19T03:36:32.159Z,0.00
2022-12-19T03:37:32.097Z,0.00
2022-12-19T03:38:53.044Z,0.00
2022-12-19T03:39:31.972Z,0.00
2022-12-19T03:40:31.876Z,0.00
2022-12-19T03:41:31.829Z,0.00
2022-12-19T03:42:31.778Z,0.00
2022-12-19T03:43:31.811Z,0.00
2022-12-19T03:44:31.651Z,0.00
2022-12-19T03:45:31.611Z,0.00
2022-12-19T03:46:31.526Z,0.00
2022-12-19T03:47:31.467Z,0.00
2022-12-19T03:48:31.401Z,0.00
2022-12-19T03:49:31.351Z,0.00
2022-12-19T03:50:31.283Z,0.00
2022-12-19T03:51:31.200Z,0.00
2022-12-19T03:52:31.166Z,0.00
2022-12-19T03:53:31.076Z,0.00
2022-12-19T03:54:30.981Z,0.00
2022-12-19T03:55:30.969Z,0.00
2022-12-19T03:56:51.867Z,0.00
2022-12-19T03:57:30.845Z,0.00
2022-12-19T03:58:30.731Z,0.00
2022-12-19T03:59:30.694Z,0.00
2022-12-19T04:00:30.620Z,0.00
2022-12-19T04:01:30.652Z,0.00
2022-12-19T04:02:30.595Z,0.00
2022-12-19T04:03:30.511Z,0.00
2022-12-19T04:04:30.353Z,0.00
2022-12-19T04:05:30.276Z,0.00
2022-12-19T04:06:30.274Z,0.00
2022-12-19T04:07:30.217Z,0.00
2022-12-19T04:08:30.135Z,0.00
2022-12-19T04:09:30.014Z,0.00
2022-12-19T04:10:29.992Z,0.00
2022-12-19T04:11:29.934Z,0.00
2022-12-19T04:12:29.870Z,0.00
2022-12-19T04:13:29.817Z,0.00
2022-12-19T04:14:50.796Z,0.00
2022-12-19T04:15:29.693Z,0.00
2022-12-19T04:16:29.576Z,0.00
2022-12-19T04:17:29.547Z,0.00
2022-12-19T04:18:29.490Z,0.00
2022-12-19T04:19:29.465Z,0.00
2022-12-19T04:20:29.330Z,0.00
2022-12-19T04:21:29.302Z,0.00
2022-12-19T04:22:29.220Z,0.00
2022-12-19T04:23:29.128Z,0.00
2022-12-19T04:24:29.111Z,0.00
2022-12-19T04:25:29.724Z,0.00
2022-12-19T04:26:28.967Z,0.00
2022-12-19T04:27:28.859Z,0.00
2022-12-19T04:28:28.805Z,0.00
2022-12-19T04:29:28.765Z,0.00
2022-12-19T04:30:28.678Z,0.00
2022-12-19T04:31:28.662Z,0.00
2022-12-19T04:32:28.615Z,0.00
2022-12-19T04:33:28.497Z,0.00
2022-12-19T04:34:28.461Z,0.00
2022-12-19T04:35:28.392Z,0.00
2022-12-19T04:36:28.283Z,0.00
2022-12-19T04:37:28.235Z,0.00
2022-12-19T04:38:28.194Z,0.00
2022-12-19T04:39:28.085Z,0.00
2022-12-19T04:40:28.073Z,0.00
2022-12-19T04:41:27.975Z,0.00
2022-12-19T04:42:27.915Z,0.00
2022-12-19T04:43:27.859Z,0.00
2022-12-19T04:44:27.797Z,0.00
2022-12-19T04:45:27.747Z,0.00
2022-12-19T04:46:27.699Z,0.00
2022-12-19T04:47:27.593Z,0.00
2022-12-19T04:48:27.561Z,0.00
2022-12-19T04:49:27.468Z,0.00
2022-12-19T04:50:27.423Z,0.00
2022-12-19T04:51:27.330Z,0.00
2022-12-19T04:52:27.313Z,0.00
2022-12-19T04:53:27.245Z,0.00
2022-12-19T04:54:27.156Z,0.00
2022-12-19T04:55:27.095Z,0.00
2022-12-19T04:56:27.028Z,0.00
2022-12-19T04:57:26.978Z,0.00
2022-12-19T04:58:26.861Z,0.00
2022-12-19T04:59:26.850Z,0.00
2022-12-19T05:00:26.761Z,0.00
2022-12-19T05:01:26.752Z,0.00
2022-12-19T05:02:26.844Z,0.00
2022-12-19T05:03:26.609Z,0.00
2022-12-19T05:04:26.498Z,0.00
2022-12-19T05:05:26.457Z,0.00
2022-12-19T05:06:26.365Z,0.00
2022-12-19T05:07:26.322Z,0.00
2022-12-19T05:08:26.263Z,0.00
2022-12-19T05:09:26.177Z,0.00
2022-12-19T05:10:26.106Z,0.00
2022-12-19T05:11:26.032Z,0.00
2022-12-19T05:12:25.954Z,0.00
2022-12-19T05:13:25.927Z,0.00
2022-12-19T05:14:25.902Z,0.00
2022-12-19T05:15:25.810Z,0.00
2022-12-19T05:16:25.757Z,0.00
2022-12-19T05:17:25.661Z,0.00
2022-12-19T05:18:25.578Z,0.00
2022-12-19T05:19:25.532Z,0.00
2022-12-19T05:20:25.961Z,0.00
2022-12-19T05:21:25.429Z,0.00
2022-12-19T05:22:25.366Z,0.00
2022-12-19T05:23:25.250Z,0.00
2022-12-19T05:24:25.231Z,0.00
2022-12-19T05:25:25.165Z,0.00
2022-12-19T05:26:46.057Z,0.00
2022-12-19T05:27:25.041Z,0.00
2022-12-19T05:28:24.927Z,0.00
2022-12-19T05:29:24.881Z,0.00
2022-12-19T05:30:24.768Z,1.00
2022-12-19T05:31:24.831Z,0.00
2022-12-19T05:32:24.686Z,0.00
2022-12-19T05:33:24.628Z,0.00
2022-12-19T05:34:24.556Z,0.00
2022-12-19T05:35:24.498Z,0.00
2022-12-19T05:36:29.041Z,0.00
2022-12-19T05:37:24.376Z,0.00
2022-12-19T05:38:24.287Z,0.00
2022-12-19T05:39:24.210Z,0.00
2022-12-19T05:40:24.197Z,0.00
2022-12-19T05:41:24.138Z,0.00
2022-12-19T05:42:24.071Z,0.00
2022-12-19T05:43:23.958Z,0.00
2022-12-19T05:44:23.922Z,0.00
2022-12-19T05:45:23.847Z,0.00
2022-12-19T05:46:23.832Z,0.00
2022-12-19T05:47:23.725Z,0.00
2022-12-19T05:48:23.662Z,0.00
2022-12-19T05:49:23.647Z,0.00
2022-12-19T05:50:23.538Z,0.00
2022-12-19T05:51:23.488Z,0.00
2022-12-19T05:52:23.427Z,0.00
2022-12-19T05:53:26.062Z,0.00
2022-12-19T05:54:23.264Z,0.00
2022-12-19T05:55:23.209Z,0.00
2022-12-19T05:56:23.175Z,0.00
2022-12-19T05:57:23.047Z,0.00
2022-12-19T05:58:23.014Z,0.00
2022-12-19T05:59:22.944Z,0.00
2022-12-19T06:00:22.918Z,0.00
2022-12-19T06:01:22.880Z,0.00
2022-12-19T06:02:43.903Z,0.00
2022-12-19T06:03:22.785Z,0.00
2022-12-19T06:04:22.625Z,0.00
2022-12-19T06:05:22.532Z,0.00
2022-12-19T06:06:22.498Z,0.00
2022-12-19T06:07:22.462Z,0.00
2022-12-19T06:08:22.410Z,0.00
2022-12-19T06:09:22.298Z,0.00
2022-12-19T06:10:22.228Z,0.00
2022-12-19T06:11:22.208Z,0.00
2022-12-19T06:12:22.128Z,0.00
2022-12-19T06:13:25.033Z,0.00
2022-12-19T06:14:21.988Z,0.00
2022-12-19T06:15:21.917Z,0.00
2022-12-19T06:16:21.924Z,0.00
2022-12-19T06:17:21.807Z,0.00
2022-12-19T06:18:21.715Z,0.00
2022-12-19T06:19:21.655Z,0.00
2022-12-19T06:20:42.551Z,0.00
2022-12-19T06:21:21.530Z,0.00
2022-12-19T06:22:21.464Z,0.00
2022-12-19T06:23:21.382Z,0.00
2022-12-19T06:24:21.337Z,0.00
2022-12-19T06:25:21.303Z,0.00
2022-12-19T06:26:21.239Z,0.00
2022-12-19T06:27:21.118Z,0.00
2022-12-19T06:28:21.103Z,0.00
2022-12-19T06:29:21.013Z,0.00
2022-12-19T06:30:20.970Z,0.00
2022-12-19T06:31:20.930Z,0.00
2022-12-19T06:32:20.815Z,0.00
2022-12-19T06:33:20.728Z,0.00
2022-12-19T06:34:46.968Z,0.00
2022-12-19T06:35:20.673Z,0.00
2022-12-19T06:36:20.547Z,0.00
2022-12-19T06:37:20.504Z,0.00
2022-12-19T06:38:41.471Z,0.00
2022-12-19T06:39:20.362Z,0.00
2022-12-19T06:40:20.307Z,0.00
2022-12-19T06:41:20.259Z,0.00
2022-12-19T06:42:20.162Z,0.00
2022-12-19T06:43:20.076Z,0.00
2022-12-19T06:44:20.061Z,0.00
2022-12-19T06:45:19.983Z,0.00
2022-12-19T06:46:20.018Z,0.00
2022-12-19T06:47:19.850Z,0.00
2022-12-19T06:48:19.759Z,0.00
2022-12-19T06:49:19.719Z,0.00
2022-12-19T06:50:19.709Z,0.00
2022-12-19T06:51:19.587Z,0.00
2022-12-19T06:52:19.527Z,0.00
2022-12-19T06:53:19.485Z,0.00
2022-12-19T06:54:19.457Z,0.00
2022-12-19T06:55:19.305Z,0.00
2022-12-19T06:56:19.301Z,0.00
2022-12-19T06:57:19.206Z,0.00
2022-12-19T06:58:23.995Z,0.00
2022-12-19T06:59:19.104Z,0.00
2022-12-19T07:00:18.985Z,0.00
2022-12-19T07:01:19.078Z,0.00
2022-12-19T07:02:18.975Z,0.00
2022-12-19T07:03:18.842Z,0.00
2022-12-19T07:04:18.731Z,0.00
2022-12-19T07:05:18.654Z,1.00
2022-12-19T07:06:18.568Z,1.00
2022-12-19T07:07:18.485Z,1.00
2022-12-19T07:08:18.495Z,1.00
2022-12-19T07:09:18.387Z,1.00
2022-12-19T07:10:18.352Z,1.00
2022-12-19T07:11:18.254Z,2.00
2022-12-19T07:12:18.183Z,2.00
2022-12-19T07:13:18.115Z,2.00
2022-12-19T07:14:39.067Z,2.00
2022-12-19T07:15:17.987Z,3.00
2022-12-19T07:16:17.985Z,3.00
2022-12-19T07:17:17.862Z,3.00
2022-12-19T07:18:17.773Z,4.00
2022-12-19T07:19:17.734Z,8.00
2022-12-19T07:20:17.735Z,8.00
2022-12-19T07:21:17.577Z,8.00
2022-12-19T07:22:17.540Z,7.00
2022-12-19T07:23:17.449Z,8.00
2022-12-19T07:24:17.437Z,8.00
2022-12-19T07:25:17.343Z,9.00
2022-12-19T07:27:35.214Z,11.00
2022-12-19T07:28:27.420Z,11.00
2022-12-19T07:29:27.351Z,11.00
2022-12-19T07:30:27.255Z,13.00
2022-12-19T07:31:27.278Z,15.00
2022-12-19T07:32:48.126Z,15.00
2022-12-19T07:33:27.086Z,18.00
2022-12-19T07:34:27.028Z,20.00
2022-12-19T07:35:26.994Z,21.00
2022-12-19T07:36:26.897Z,24.00
2022-12-19T07:37:26.832Z,25.00
2022-12-19T07:38:26.775Z,26.00
2022-12-19T07:39:26.704Z,25.00
2022-12-19T07:40:26.644Z,29.00
2022-12-19T07:41:26.586Z,34.00
2022-12-19T07:42:30.865Z,36.00
2022-12-19T07:43:26.475Z,38.00
2022-12-19T07:44:26.372Z,35.00
2022-12-19T07:45:26.324Z,39.00
2022-12-19T07:46:26.256Z,45.00
2022-12-19T07:47:26.221Z,51.00
2022-12-19T07:48:26.134Z,56.00
2022-12-19T07:49:26.072Z,53.00
2022-12-19T07:50:46.971Z,53.00
2022-12-19T07:51:25.910Z,56.00
2022-12-19T07:52:25.842Z,60.00
2022-12-19T07:53:25.828Z,60.00
2022-12-19T07:54:25.729Z,63.00
2022-12-19T07:55:25.684Z,63.00
2022-12-19T07:56:25.665Z,75.00
2022-12-19T07:57:25.531Z,73.00
2022-12-19T07:58:25.486Z,73.00
2022-12-19T07:59:30.338Z,70.00
2022-12-19T08:00:25.340Z,74.00
2022-12-19T08:01:25.422Z,79.00
2022-12-19T08:02:25.375Z,89.00
2022-12-19T08:03:25.184Z,103.00
2022-12-19T08:04:25.064Z,102.00
2022-12-19T08:05:26.857Z,104.00
2022-12-19T08:06:24.969Z,107.00
2022-12-19T08:07:24.921Z,107.00
2022-12-19T08:08:24.813Z,111.00
2022-12-19T08:09:24.743Z,109.00
2022-12-19T08:10:24.729Z,119.00
2022-12-19T08:11:24.636Z,116.00
2022-12-19T08:12:24.574Z,112.00
2022-12-19T08:13:24.565Z,110.00
2022-12-19T08:14:24.461Z,106.00
2022-12-19T08:15:24.367Z,104.00
2022-12-19T08:16:24.391Z,108.00
2022-12-19T08:17:24.314Z,110.00
2022-12-19T08:18:24.201Z,109.00
2022-12-19T08:19:27.444Z,110.00
2022-12-19T08:20:24.104Z,115.00
2022-12-19T08:21:23.975Z,118.00
2022-12-19T08:22:23.930Z,113.00
2022-12-19T08:23:23.868Z,121.00
2022-12-19T08:24:23.772Z,120.00
2022-12-19T08:25:23.737Z,117.00
2022-12-19T08:26:23.697Z,121.00
2022-12-19T08:27:23.604Z,110.00
2022-12-19T08:28:23.571Z,108.00
2022-12-19T08:29:23.454Z,108.00
2022-12-19T08:30:23.412Z,112.00
2022-12-19T08:31:23.452Z,111.00
2022-12-19T08:32:23.319Z,111.00
2022-12-19T08:33:23.224Z,115.00
2022-12-19T08:34:23.187Z,118.00
2022-12-19T08:35:23.089Z,112.00
2022-12-19T08:36:23.034Z,116.00
2022-12-19T08:37:22.974Z,122.00
2022-12-19T08:38:22.924Z,121.00
2022-12-19T08:39:22.837Z,127.00
2022-12-19T08:40:22.800Z,129.00
2022-12-19T08:41:22.723Z,128.00
2022-12-19T08:42:22.616Z,130.00
2022-12-19T08:43:22.588Z,126.00
2022-12-19T08:44:43.528Z,129.00
2022-12-19T08:45:22.454Z,133.00
2022-12-19T08:46:22.445Z,141.00
2022-12-19T08:47:22.320Z,144.00
2022-12-19T08:48:22.241Z,148.00
2022-12-19T08:49:22.375Z,158.00
2022-12-19T08:50:22.169Z,172.00
2022-12-19T08:51:22.033Z,191.00
2022-12-19T08:52:22.026Z,191.00
2022-12-19T08:53:26.281Z,210.00
2022-12-19T08:54:21.888Z,221.00
2022-12-19T08:55:21.809Z,232.00
2022-12-19T08:56:21.833Z,238.00
2022-12-19T08:57:21.671Z,246.00
2022-12-19T08:58:21.609Z,250.00
2022-12-19T08:59:30.894Z,252.00
2022-12-19T09:00:21.494Z,264.00
2022-12-19T09:01:21.496Z,273.00
2022-12-19T09:06:02.071Z,313.00
2022-12-19T09:06:19.399Z,309.00
2022-12-19T09:06:30.964Z,313.00
2022-12-19T09:07:30.798Z,320.00
2022-12-19T09:08:30.802Z,321.00
2022-12-19T09:09:30.695Z,326.00
2022-12-19T09:10:30.646Z,329.00
2022-12-19T09:11:30.549Z,323.00
2022-12-19T09:12:30.464Z,311.00
2022-12-19T09:13:30.458Z,296.00
2022-12-19T09:14:30.371Z,283.00
2022-12-19T09:15:30.286Z,301.00
2022-12-19T09:16:30.280Z,319.00
2022-12-19T09:17:30.214Z,330.00
2022-12-19T09:18:30.103Z,336.00
2022-12-19T09:19:30.062Z,340.00
2022-12-19T09:20:29.984Z,356.00
2022-12-19T09:21:30.137Z,337.00
2022-12-19T09:22:29.837Z,352.00
2022-12-19T09:23:29.751Z,352.00
2022-12-19T09:24:29.745Z,347.00
2022-12-19T09:25:29.626Z,352.00
2022-12-19T09:26:33.051Z,338.00
2022-12-19T09:27:29.532Z,349.00
2022-12-19T09:28:29.487Z,347.00
2022-12-19T09:29:33.612Z,349.00
2022-12-19T09:30:29.333Z,358.00
2022-12-19T09:31:29.360Z,364.00
2022-12-19T09:32:50.950Z,367.00
2022-12-19T09:33:29.215Z,371.00
2022-12-19T09:34:38.176Z,364.00
2022-12-19T09:35:30.667Z,366.00
2022-12-19T09:36:28.919Z,363.00
2022-12-19T09:37:28.857Z,355.00
2022-12-19T09:38:28.853Z,339.00
2022-12-19T09:39:28.719Z,352.00
2022-12-19T09:40:28.700Z,345.00
2022-12-19T09:41:28.613Z,331.00
2022-12-19T09:42:28.544Z,326.00
2022-12-19T09:43:28.465Z,332.00
2022-12-19T09:44:28.441Z,327.00
2022-12-19T09:45:31.723Z,315.00
2022-12-19T09:46:28.336Z,313.00
2022-12-19T09:47:28.247Z,314.00
2022-12-19T09:48:28.167Z,327.00
2022-12-19T09:49:28.100Z,321.00
2022-12-19T09:50:28.036Z,335.00
2022-12-19T09:51:27.969Z,334.00
2022-12-19T09:52:29.835Z,336.00
2022-12-19T09:53:27.915Z,327.00
2022-12-19T09:54:27.803Z,324.00
2022-12-19T09:55:27.720Z,313.00
2022-12-19T09:56:48.665Z,287.00
2022-12-19T09:57:27.559Z,296.00
2022-12-19T09:58:27.524Z,292.00
2022-12-19T09:59:28.367Z,286.00
2022-12-19T10:00:27.399Z,291.00
2022-12-19T10:01:27.516Z,284.00
2022-12-19T10:02:27.588Z,298.00
2022-12-19T10:03:27.213Z,287.00
2022-12-19T10:04:27.131Z,282.00
2022-12-19T10:06:20.296Z,288.00
2022-12-19T10:07:47.105Z,308.00
2022-12-19T10:08:09.610Z,301.00
2022-12-19T10:08:30.859Z,313.00
2022-12-19T10:11:58.893Z,319.00
2022-12-19T10:12:53.144Z,343.00
2022-12-19T10:13:03.666Z,364.00
2022-12-19T10:15:08.962Z,404.00
2022-12-19T10:16:09.829Z,395.00
2022-12-19T10:17:24.037Z,418.00
2022-12-19T10:18:09.694Z,417.00
2022-12-19T10:19:09.606Z,423.00
2022-12-19T10:20:09.522Z,405.00
2022-12-19T10:21:09.467Z,411.00
2022-12-19T10:22:18.358Z,414.00
2022-12-19T10:23:09.336Z,417.00
2022-12-19T10:24:09.308Z,429.00
2022-12-19T10:25:09.871Z,418.00
2022-12-19T10:26:09.169Z,423.00
2022-12-19T10:27:09.085Z,387.00
2022-12-19T10:28:08.983Z,369.00
2022-12-19T10:29:09.030Z,368.00
2022-12-19T10:30:08.884Z,370.00
2022-12-19T10:31:15.530Z,385.00
2022-12-19T10:32:08.808Z,400.00
2022-12-19T10:33:11.816Z,404.00
2022-12-19T10:34:08.630Z,405.00
2022-12-19T10:35:08.533Z,402.00
2022-12-19T10:36:08.498Z,398.00
2022-12-19T10:37:29.380Z,396.00
2022-12-19T10:38:08.407Z,392.00
2022-12-19T10:39:08.356Z,390.00
2022-12-19T10:40:11.709Z,394.00
2022-12-19T10:41:08.208Z,406.00
2022-12-19T10:42:08.158Z,419.00
2022-12-19T10:43:11.585Z,440.00
2022-12-19T10:44:08.033Z,439.00
2022-12-19T10:45:07.898Z,447.00
2022-12-19T10:46:07.979Z,430.00
2022-12-19T10:47:07.886Z,400.00
2022-12-19T10:48:07.751Z,399.00
2022-12-19T10:49:07.706Z,421.00
2022-12-19T10:50:09.885Z,419.00
2022-12-19T10:51:07.504Z,382.00
2022-12-19T10:52:07.456Z,381.00
2022-12-19T10:53:07.467Z,373.00
2022-12-19T10:54:07.303Z,364.00
2022-12-19T10:55:07.248Z,365.00
2022-12-19T10:56:07.245Z,353.00
2022-12-19T10:57:07.253Z,329.00
2022-12-19T10:58:07.056Z,343.00
2022-12-19T10:59:07.326Z,355.00
2022-12-19T11:00:06.978Z,361.00
2022-12-19T11:01:06.860Z,378.00
2022-12-19T11:02:11.384Z,361.00
2022-12-19T11:03:06.871Z,356.00
2022-12-19T11:04:06.742Z,366.00
2022-12-19T11:05:06.716Z,377.00
2022-12-19T11:06:06.560Z,407.00
2022-12-19T11:07:06.536Z,417.00
2022-12-19T11:08:27.423Z,419.00
2022-12-19T11:09:06.373Z,410.00
2022-12-19T11:10:54.076Z,394.00
2022-12-19T11:16:53.656Z,382.00
2022-12-19T11:29:34.556Z,382.00
2022-12-19T11:32:46.520Z,302.00
2022-12-19T11:33:05.245Z,362.00
2022-12-19T11:34:05.081Z,368.00
2022-12-19T11:35:05.134Z,370.00
2022-12-19T11:36:04.975Z,372.00
2022-12-19T11:37:04.874Z,362.00
2022-12-19T11:38:04.772Z,359.00
2022-12-19T11:39:04.732Z,352.00
2022-12-19T11:40:04.661Z,356.00
2022-12-19T11:41:04.645Z,357.00
2022-12-19T11:42:04.566Z,355.00
2022-12-19T11:43:42.571Z,360.00
2022-12-19T11:44:04.473Z,359.00
2022-12-19T11:45:04.345Z,360.00
2022-12-19T11:46:04.337Z,374.00
2022-12-19T11:47:04.254Z,374.00
2022-12-19T11:48:04.149Z,370.00
2022-12-19T11:49:04.083Z,363.00
2022-12-19T11:50:04.020Z,360.00
2022-12-19T11:51:03.976Z,352.00
2022-12-19T11:52:03.869Z,347.00
2022-12-19T11:53:07.736Z,348.00
2022-12-19T11:54:03.838Z,355.00
2022-12-19T11:55:03.708Z,361.00
2022-12-19T11:56:03.629Z,371.00
2022-12-19T11:57:03.591Z,372.00
2022-12-19T11:58:03.527Z,354.00
2022-12-19T11:59:03.443Z,347.00
2022-12-19T12:00:05.731Z,344.00
2022-12-19T12:01:03.347Z,337.00
2022-12-19T12:02:03.338Z,332.00
2022-12-19T12:03:03.233Z,329.00
2022-12-19T12:04:03.500Z,333.00
2022-12-19T12:05:03.127Z,346.00
2022-12-19T12:06:03.011Z,353.00
2022-12-19T12:10:17.031Z,306.00
2022-12-19T12:26:15.033Z,316.00
2022-12-19T12:35:54.201Z,235.00
2022-12-19T12:38:24.612Z,257.00
2022-12-19T12:39:03.916Z,263.00
2022-12-19T12:40:03.745Z,260.00
2022-12-19T12:41:03.716Z,255.00
2022-12-19T12:42:03.650Z,252.00
2022-12-19T12:43:03.529Z,265.00
2022-12-19T12:44:03.473Z,265.00
2022-12-19T12:45:03.398Z,259.00
2022-12-19T12:46:03.515Z,252.00
2022-12-19T12:47:03.293Z,265.00
2022-12-19T12:48:24.202Z,267.00
2022-12-19T12:49:03.179Z,271.00
2022-12-19T12:50:03.071Z,274.00
2022-12-19T12:51:03.043Z,280.00
2022-12-19T12:52:02.956Z,266.00
2022-12-19T12:53:02.870Z,248.00
2022-12-19T12:54:02.867Z,243.00
2022-12-19T12:55:02.776Z,235.00
2022-12-19T12:56:02.965Z,233.00
2022-12-19T12:57:02.637Z,230.00
2022-12-19T12:58:02.563Z,247.00
2022-12-19T12:59:02.511Z,245.00
2022-12-19T13:00:03.086Z,257.00
2022-12-19T13:01:23.510Z,250.00
2022-12-19T13:02:02.496Z,241.00
2022-12-19T13:03:02.300Z,237.00
2022-12-19T13:04:02.180Z,230.00
2022-12-19T13:05:02.134Z,227.00
2022-12-19T13:06:23.025Z,214.00
2022-12-19T13:07:01.989Z,200.00
2022-12-19T13:08:01.941Z,198.00
2022-12-19T13:09:01.831Z,209.00
2022-12-19T13:10:02.584Z,236.00
2022-12-19T13:11:01.700Z,247.00
2022-12-19T13:12:01.716Z,247.00
2022-12-19T13:13:01.643Z,247.00
2022-12-19T13:14:01.528Z,253.00
2022-12-19T13:15:01.490Z,261.00
2022-12-19T13:16:01.395Z,262.00
2022-12-19T13:17:01.392Z,269.00
2022-12-19T13:18:01.285Z,291.00
2022-12-19T13:19:01.226Z,312.00
2022-12-19T13:20:01.143Z,288.00
2022-12-19T13:21:01.078Z,274.00
2022-12-19T13:22:01.007Z,278.00
2022-12-19T13:23:00.929Z,291.00
2022-12-19T13:24:21.894Z,294.00
2022-12-19T13:25:00.849Z,277.00
2022-12-19T13:26:00.771Z,288.00
2022-12-19T13:27:00.701Z,290.00
2022-12-19T13:28:00.655Z,297.00
2022-12-19T13:29:00.569Z,298.00
2022-12-19T13:30:00.536Z,298.00
2022-12-19T13:31:13.522Z,297.00
2022-12-19T13:32:00.400Z,294.00
2022-12-19T13:33:00.303Z,284.00
2022-12-19T13:34:00.234Z,275.00
2022-12-19T13:35:51.058Z,279.00
2022-12-19T13:39:52.181Z,279.00
2022-12-19T13:40:11.960Z,280.00
2022-12-19T13:40:20.875Z,268.00
2022-12-19T13:41:17.156Z,209.00
2022-12-19T13:42:17.147Z,196.00
2022-12-19T13:43:17.084Z,207.00
2022-12-19T13:44:17.034Z,219.00
2022-12-19T13:45:16.944Z,224.00
2022-12-19T13:46:16.932Z,245.00
2022-12-19T13:47:23.512Z,257.00
2022-12-19T13:48:16.873Z,269.00
2022-12-19T13:49:16.687Z,275.00
2022-12-19T13:50:16.637Z,262.00
2022-12-19T13:51:16.538Z,256.00
2022-12-19T13:52:16.480Z,247.00
2022-12-19T13:53:16.456Z,251.00
2022-12-19T13:54:16.331Z,230.00
2022-12-19T13:55:16.254Z,220.00
2022-12-19T13:56:16.193Z,208.00